Terminal Aerodrome Forecast
Issued by NWS

Home | Current Version | Previous Version | Graphics & Text | Print | Product List | Glossary On
Versions: 1 2 3 4 5 6 7 8 9 10 11 12 13 14 15 16 17 18 19 20 21 22 23 24 25 26
670
FTUS43 KABR 301018 AAB
TAFMBG
TAF AMD
KMBG 301018Z 3010/0106 32022G30KT 4SM BR OVC018
     FM301200 32018G28KT P6SM OVC010
     FM302200 32015G22KT P6SM OVC010=

USA.gov is the U.S. government's official web portal to all federal, state and local government web resources and services.